createdAt,value
2023-02-26T00:02:28.363Z,99824.53
2023-02-26T00:07:29.446Z,99841.56
2023-02-26T00:12:31.143Z,99834.81
2023-02-26T00:17:40.559Z,99834.78
2023-02-26T00:22:41.724Z,99834.78
2023-02-26T00:27:44.015Z,99844.22
2023-02-26T00:32:46.997Z,99845.84
2023-02-26T00:37:57.675Z,99851.72
2023-02-26T00:42:59.160Z,99858.59
2023-02-26T00:48:17.581Z,99860.34
2023-02-26T00:53:21.207Z,99862.78
2023-02-26T00:58:21.898Z,99855.03
2023-02-26T01:03:24.610Z,99865.31
2023-02-26T01:08:32.747Z,99867.91
2023-02-26T01:13:33.756Z,99876.56
2023-02-26T01:18:42.494Z,99872.97
2023-02-26T01:23:48.702Z,99872.84
2023-02-26T01:28:50.205Z,99871.09
2023-02-26T01:33:56.435Z,99880.59
2023-02-26T01:39:03.590Z,99889.06
2023-02-26T01:44:16.579Z,99892.56
2023-02-26T01:49:20.145Z,99888.19
2023-02-26T01:54:22.534Z,99896.69
2023-02-26T01:59:24.704Z,99900.31
2023-02-26T02:04:28.081Z,99911.22
2023-02-26T02:09:29.134Z,99918.84
2023-02-26T02:14:42.728Z,99920.56
2023-02-26T02:20:32.172Z,99937.59
2023-02-26T02:25:51.980Z,99936.88
2023-02-26T02:31:06.812Z,99941.16
2023-02-26T02:36:16.317Z,99953.16
2023-02-26T02:41:21.683Z,99966.03
2023-02-26T02:46:28.249Z,99966.13
2023-02-26T02:51:33.887Z,99982.28
2023-02-26T02:56:39.825Z,99984.72
2023-02-26T03:01:44.972Z,99994.22
2023-02-26T03:06:46.739Z,99998.50
2023-02-26T03:11:47.493Z,100006.06
2023-02-26T03:17:02.566Z,100014.72
2023-02-26T03:22:09.745Z,100020.81
2023-02-26T03:27:35.278Z,100016.38
2023-02-26T03:32:44.614Z,100026.78
2023-02-26T03:37:48.629Z,100037.72
2023-02-26T03:42:54.995Z,100049.69
2023-02-26T03:48:00.398Z,100058.31
2023-02-26T03:53:04.146Z,100063.50
2023-02-26T03:58:15.214Z,100068.63
2023-02-26T04:03:30.941Z,100073.91
2023-02-26T04:08:32.256Z,100090.94
2023-02-26T04:13:33.086Z,100093.25
2023-02-26T04:18:37.034Z,100100.19
2023-02-26T04:23:40.219Z,100113.63
2023-02-26T04:28:40.980Z,100122.06
2023-02-26T04:33:43.190Z,100123.88
2023-02-26T04:38:44.338Z,100123.16
2023-02-26T04:43:45.055Z,100130.69
2023-02-26T04:48:57.321Z,100139.06
2023-02-26T04:53:58.608Z,100146.16
2023-02-26T04:58:59.343Z,100149.44
2023-02-26T05:04:04.398Z,100169.06
2023-02-26T05:09:05.749Z,100174.88
2023-02-26T05:14:06.430Z,100178.53
2023-02-26T05:19:08.976Z,100183.56
2023-02-26T05:24:09.855Z,100188.56
2023-02-26T05:29:10.497Z,100201.34
2023-02-26T05:34:12.534Z,100198.94
2023-02-26T05:39:13.225Z,100205.66
2023-02-26T05:44:13.875Z,100220.16
2023-02-26T05:49:15.876Z,100229.53
2023-02-26T05:54:16.578Z,100231.47
2023-02-26T05:59:17.293Z,100239.34
2023-02-26T06:04:19.376Z,100258.81
2023-02-26T06:09:20.030Z,100260.75
2023-02-26T06:14:20.786Z,100271.72
2023-02-26T06:19:22.763Z,100278.38
2023-02-26T06:24:23.430Z,100281.97
2023-02-26T06:29:24.248Z,100295.81
2023-02-26T06:34:26.203Z,100312.72
2023-02-26T06:39:26.896Z,100326.53
2023-02-26T06:44:27.635Z,100319.78
2023-02-26T06:49:29.607Z,100329.22
2023-02-26T06:54:30.280Z,100341.69
2023-02-26T06:59:30.947Z,100347.22
2023-02-26T07:04:32.987Z,100354.88
2023-02-26T07:09:33.785Z,100360.88
2023-02-26T07:14:34.501Z,100372.03
2023-02-26T07:19:36.726Z,100381.59
2023-02-26T07:24:37.377Z,100379.94
2023-02-26T07:29:38.120Z,100386.69
2023-02-26T07:34:40.179Z,100398.63
2023-02-26T07:39:40.903Z,100409.88
2023-02-26T07:44:41.585Z,100407.06
2023-02-26T07:49:43.647Z,100414.84
2023-02-26T07:54:45.578Z,100419.16
2023-02-26T07:59:46.519Z,100435.41
2023-02-26T08:04:48.557Z,100434.09
2023-02-26T08:09:49.242Z,100432.88
2023-02-26T08:14:49.991Z,100446.75
2023-02-26T08:19:52.032Z,100459.78
2023-02-26T08:24:53.758Z,100464.84
2023-02-26T08:29:54.458Z,100472.94
2023-02-26T08:34:56.448Z,100479.09
2023-02-26T08:39:57.122Z,100476.09
2023-02-26T08:44:57.855Z,100492.38
2023-02-26T08:49:59.876Z,100489.28
2023-02-26T08:55:00.554Z,100496.06
2023-02-26T09:00:01.175Z,100512.69
2023-02-26T09:05:03.208Z,100524.25
2023-02-26T09:10:04.735Z,100514.31
2023-02-26T09:15:06.252Z,100543.66
2023-02-26T09:20:10.037Z,100548.34
2023-02-26T09:25:11.818Z,100554.00
2023-02-26T09:30:13.665Z,100558.41
2023-02-26T09:35:15.845Z,100568.84
2023-02-26T09:40:26.770Z,100573.47
2023-02-26T09:45:34.337Z,100579.03
2023-02-26T09:50:42.803Z,100579.47
2023-02-26T09:55:46.714Z,100592.81
2023-02-26T10:00:57.757Z,100603.09
2023-02-26T10:06:19.456Z,100598.59
2023-02-26T10:11:27.436Z,100609.69
2023-02-26T10:16:34.153Z,100626.22
2023-02-26T10:21:42.101Z,100627.38
2023-02-26T10:26:46.429Z,100640.13
2023-02-26T10:32:00.053Z,100640.31
2023-02-26T10:37:14.784Z,100643.41
2023-02-26T10:42:21.539Z,100646.06
2023-02-26T10:47:36.583Z,100653.75
2023-02-26T10:52:39.251Z,100663.22
2023-02-26T10:57:45.833Z,100664.16
2023-02-26T11:02:47.941Z,100664.00
2023-02-26T11:07:53.636Z,100674.84
2023-02-26T11:12:54.484Z,100666.78
2023-02-26T11:17:57.995Z,100669.59
2023-02-26T11:23:02.088Z,100664.50
2023-02-26T11:28:06.001Z,100667.16
2023-02-26T11:33:17.755Z,100668.97
2023-02-26T11:38:26.376Z,100673.59
2023-02-26T11:43:34.535Z,100679.25
2023-02-26T11:48:41.544Z,100688.78
2023-02-26T11:53:49.942Z,100680.31
2023-02-26T11:58:55.271Z,100679.72
2023-02-26T12:03:59.996Z,100683.06
2023-02-26T12:09:02.334Z,100673.81
2023-02-26T12:14:18.725Z,100683.19
2023-02-26T12:19:25.416Z,100687.84
2023-02-26T12:24:44.389Z,100694.66
2023-02-26T12:30:09.447Z,100693.59
2023-02-26T12:35:28.313Z,100697.06
2023-02-26T12:40:46.489Z,100703.47
2023-02-26T12:45:55.808Z,100698.59
2023-02-26T12:51:07.214Z,100714.84
2023-02-26T12:56:49.974Z,100717.13
2023-02-26T13:02:20.932Z,100714.44
2023-02-26T13:07:38.798Z,100718.56
2023-02-26T13:12:48.868Z,100724.09
2023-02-26T13:17:56.986Z,100725.75
2023-02-26T13:23:00.665Z,100727.13
2023-02-26T13:28:06.378Z,100729.78
2023-02-26T13:33:16.754Z,100742.72
2023-02-26T13:38:25.348Z,100734.53
2023-02-26T13:43:59.242Z,100758.75
2023-02-26T13:49:06.032Z,100753.34
2023-02-26T13:54:28.998Z,100760.50
2023-02-26T13:59:46.939Z,100775.44
2023-02-26T14:04:53.335Z,100774.22
2023-02-26T14:10:01.430Z,100763.31
2023-02-26T14:15:38.491Z,100761.91
2023-02-26T14:20:40.745Z,100749.97
2023-02-26T14:25:43.414Z,100757.84
2023-02-26T14:30:50.972Z,100764.59
2023-02-26T14:35:53.205Z,100776.28
2023-02-26T14:40:58.608Z,100772.25
2023-02-26T14:46:03.972Z,100764.78
2023-02-26T14:51:19.486Z,100777.56
2023-02-26T14:56:28.245Z,100777.34
2023-02-26T15:01:50.277Z,100790.03
2023-02-26T15:07:19.287Z,100822.22
2023-02-26T15:12:37.114Z,100839.00
2023-02-26T15:17:56.966Z,100832.00
2023-02-26T15:23:10.136Z,100806.81
2023-02-26T15:28:14.770Z,100810.84
2023-02-26T15:33:20.512Z,100816.66
2023-02-26T15:38:21.697Z,100812.66
2023-02-26T15:43:26.913Z,100834.47
2023-02-26T15:48:31.842Z,100829.22
2023-02-26T15:53:35.224Z,100830.94
2023-02-26T15:58:39.595Z,100835.91
2023-02-26T16:03:41.673Z,100845.34
2023-02-26T16:08:43.099Z,100847.19
2023-02-26T16:13:45.692Z,100850.94
2023-02-26T16:18:48.219Z,100855.38
2023-02-26T16:23:51.932Z,100865.97
2023-02-26T16:28:58.283Z,100860.72
2023-02-26T16:34:02.868Z,100860.28
2023-02-26T16:39:18.122Z,100866.59
2023-02-26T16:44:45.913Z,100876.81
2023-02-26T16:49:48.962Z,100881.19
2023-02-26T16:54:58.524Z,100885.66
2023-02-26T17:00:06.782Z,100914.38
2023-02-26T17:05:18.857Z,100916.50
2023-02-26T17:10:24.760Z,100926.44
2023-02-26T17:15:30.738Z,100936.59
2023-02-26T17:20:34.143Z,100943.50
2023-02-26T17:25:37.050Z,100951.41
2023-02-26T17:30:38.340Z,100968.81
2023-02-26T17:35:41.174Z,100969.94
2023-02-26T17:40:43.148Z,100973.72
2023-02-26T17:45:43.917Z,100978.97
2023-02-26T17:50:48.391Z,100989.78
2023-02-26T17:55:52.293Z,100993.09
2023-02-26T18:00:55.186Z,101001.38
2023-02-26T18:05:58.347Z,101006.28
2023-02-26T18:11:00.410Z,101017.16
2023-02-26T18:16:02.840Z,101023.16
2023-02-26T18:21:05.700Z,101026.63
2023-02-26T18:26:06.525Z,101031.00
2023-02-26T18:31:09.238Z,101030.28
2023-02-26T18:36:17.496Z,101036.91
2023-02-26T18:41:18.183Z,101034.91
2023-02-26T18:46:19.280Z,101047.34
2023-02-26T18:51:21.418Z,101049.41
2023-02-26T18:56:22.159Z,101059.31
2023-02-26T19:01:23.080Z,101065.28
2023-02-26T19:06:25.158Z,101077.78
2023-02-26T19:11:26.165Z,101081.16
2023-02-26T19:16:27.791Z,101088.91
2023-02-26T19:21:29.889Z,101104.41
2023-02-26T19:26:30.775Z,101102.72
2023-02-26T19:31:31.732Z,101107.97
2023-02-26T19:36:34.376Z,101111.66
2023-02-26T19:41:35.206Z,101116.78
2023-02-26T19:46:36.080Z,101131.25
2023-02-26T19:51:38.437Z,101122.84
2023-02-26T19:56:39.404Z,101135.47
2023-02-26T20:01:41.437Z,101141.28
2023-02-26T20:06:43.672Z,101150.53
2023-02-26T20:11:44.358Z,101153.13
2023-02-26T20:16:45.288Z,101173.44
2023-02-26T20:21:47.304Z,101177.06
2023-02-26T20:26:48.997Z,101175.94
2023-02-26T20:31:50.463Z,101187.16
2023-02-26T20:36:55.492Z,101187.16
2023-02-26T20:41:56.413Z,101191.25
2023-02-26T20:46:57.142Z,101194.50
2023-02-26T20:51:59.174Z,101201.03
2023-02-26T20:56:59.832Z,101196.75
2023-02-26T21:02:00.598Z,101207.47
2023-02-26T21:07:21.655Z,101197.56
2023-02-26T21:12:22.600Z,101208.97
2023-02-26T21:17:24.294Z,101210.31
2023-02-26T21:22:26.407Z,101219.63
2023-02-26T21:27:27.184Z,101228.63
2023-02-26T21:32:28.007Z,101234.56
2023-02-26T21:37:30.260Z,101238.13
2023-02-26T21:42:31.006Z,101243.81
2023-02-26T21:47:32.141Z,101240.16
2023-02-26T21:52:34.177Z,101245.47
2023-02-26T21:57:34.852Z,101237.41
2023-02-26T22:02:35.661Z,101246.63
2023-02-26T22:07:37.785Z,101246.09
2023-02-26T22:12:38.520Z,101248.25
2023-02-26T22:17:39.273Z,101252.94
2023-02-26T22:22:41.614Z,101257.72
2023-02-26T22:27:42.426Z,101253.34
2023-02-26T22:32:43.914Z,101263.69
2023-02-26T22:37:45.935Z,101263.47
2023-02-26T22:42:46.783Z,101266.72
2023-02-26T22:47:48.877Z,101268.91
2023-02-26T22:52:50.938Z,101268.00
2023-02-26T22:57:51.685Z,101271.94
2023-02-26T23:02:52.375Z,101275.13
2023-02-26T23:07:54.891Z,101270.88
2023-02-26T23:12:59.417Z,101279.00
2023-02-26T23:18:00.314Z,101281.56
2023-02-26T23:23:02.288Z,101281.28
2023-02-26T23:28:02.995Z,101293.56
2023-02-26T23:33:04.837Z,101287.41
2023-02-26T23:38:07.152Z,101285.84
2023-02-26T23:43:07.834Z,101296.47
2023-02-26T23:48:08.608Z,101302.28
2023-02-26T23:53:10.662Z,101295.38
2023-02-26T23:58:11.296Z,101298.16
